Time;durP1;ratioP1;P1;durP2;ratioP2;P2;SDS_P1;SDS_P2;PMS_P1;PMS_P2;Temp;Humidity;BMP_temperature;BMP_pressure;BME280_temperature;BME280_humidity;BME280_pressure;Samples;Min_cycle;Max_cycle;Signal;HPM_P1;HPM_P2
2022/07/02 00:02:13;;;;;;;3.03;2.40;;;;;;;;;;4996242;28;20038;-83
2022/07/02 00:04:46;;;;;;;2.88;2.58;;;;;;;;;;4980645;28;20057;-84
2022/07/02 00:07:11;;;;;;;5.10;2.30;;;;;;;;;;4981249;28;20027;-79
2022/07/02 00:09:37;;;;;;;5.93;2.60;;;;;;;;;;4993107;28;20027;-80
2022/07/02 00:12:03;;;;;;;3.05;2.20;;;;;;;;;;4986864;28;20026;-80
2022/07/02 00:14:29;;;;;;;4.03;2.22;;;;;;;;;;5006287;28;20033;-79
2022/07/02 00:16:55;;;;;;;3.20;2.40;;;;;;;;;;5012829;28;20078;-79
2022/07/02 00:19:24;;;;;;;4.05;2.50;;;;;;;;;;4989011;28;20023;-78
2022/07/02 00:21:50;;;;;;;3.65;2.55;;;;;;;;;;5014125;28;20018;-79
2022/07/02 00:24:15;;;;;;;3.63;2.53;;;;;;;;;;5014862;28;20045;-80
2022/07/02 00:26:49;;;;;;;4.93;2.60;;;;;;;;;;5012192;28;20038;-80
2022/07/02 00:29:29;;;;;;;5.80;2.88;;;;;;;;;;5015822;28;20049;-81
2022/07/02 00:31:55;;;;;;;5.22;3.13;;;;;;;;;;5015018;28;20049;-82
2022/07/02 00:34:23;;;;;;;4.28;2.30;;;;;;;;;;4977978;28;20058;-82
2022/07/02 00:36:49;;;;;;;2.95;2.22;;;;;;;;;;4977724;28;20018;-81
2022/07/02 00:39:14;;;;;;;3.65;2.40;;;;;;;;;;4977770;28;20436;-82
2022/07/02 00:41:40;;;;;;;4.97;2.50;;;;;;;;;;4974532;28;20031;-82
2022/07/02 00:44:06;;;;;;;3.38;2.30;;;;;;;;;;4983935;28;20022;-81
2022/07/02 00:46:34;;;;;;;3.55;2.20;;;;;;;;;;4967148;28;20042;-83
2022/07/02 00:49:01;;;;;;;3.58;2.50;;;;;;;;;;4956947;28;20031;-82
2022/07/02 00:51:27;;;;;;;2.97;2.60;;;;;;;;;;4974480;28;20049;-82
2022/07/02 00:53:53;;;;;;;2.35;2.15;;;;;;;;;;4975976;28;20027;-83
2022/07/02 00:56:19;;;;;;;2.83;2.20;;;;;;;;;;4977058;28;20026;-81
2022/07/02 00:58:45;;;;;;;3.15;2.22;;;;;;;;;;4977231;28;20029;-82
2022/07/02 01:01:11;;;;;;;4.25;2.35;;;;;;;;;;4977283;28;20034;-81
2022/07/02 01:03:37;;;;;;;4.20;2.53;;;;;;;;;;4957688;28;20090;-80
2022/07/02 01:06:02;;;;;;;2.90;2.20;;;;;;;;;;4977330;28;20035;-81
2022/07/02 01:11:15;;;;;;;2.97;2.25;;;;;;;;;;4970814;28;20123;-81
2022/07/02 01:13:41;;;;;;;4.25;2.40;;;;;;;;;;4976661;28;21240;-82
2022/07/02 01:16:06;;;;;;;3.55;2.35;;;;;;;;;;4974292;28;20030;-82
2022/07/02 01:18:31;;;;;;;4.72;1.98;;;;;;;;;;4987808;28;20018;-81
2022/07/02 01:20:57;;;;;;;4.35;2.33;;;;;;;;;;4978727;28;20139;-81
2022/07/02 01:23:22;;;;;;;5.35;2.40;;;;;;;;;;4978535;28;20026;-81
2022/07/02 01:25:51;;;;;;;4.50;2.40;;;;;;;;;;4976480;28;20505;-81
2022/07/02 01:28:18;;;;;;;3.45;2.17;;;;;;;;;;4984033;28;20034;-82
2022/07/02 01:30:43;;;;;;;3.65;2.50;;;;;;;;;;4980105;28;20030;-82
2022/07/02 01:33:09;;;;;;;4.18;2.20;;;;;;;;;;4979490;28;20085;-82
2022/07/02 01:35:34;;;;;;;4.30;2.30;;;;;;;;;;4976262;28;20027;-82
2022/07/02 01:38:00;;;;;;;5.63;2.65;;;;;;;;;;4979734;28;20026;-81
2022/07/02 01:40:25;;;;;;;5.25;2.65;;;;;;;;;;4980349;28;20026;-83
2022/07/02 01:42:51;;;;;;;4.18;2.60;;;;;;;;;;4985108;28;20396;-82
2022/07/02 01:45:16;;;;;;;3.88;2.10;;;;;;;;;;4984046;28;20049;-82
2022/07/02 01:47:41;;;;;;;4.15;2.38;;;;;;;;;;4986083;28;20085;-82
2022/07/02 01:50:07;;;;;;;9.18;2.70;;;;;;;;;;4985690;28;20081;-82
2022/07/02 01:52:33;;;;;;;4.80;2.60;;;;;;;;;;4965241;28;20019;-83
2022/07/02 01:54:58;;;;;;;3.33;3.03;;;;;;;;;;4960822;29;20019;-82
2022/07/02 01:57:24;;;;;;;2.63;2.30;;;;;;;;;;4960789;28;20114;-83
2022/07/02 01:59:49;;;;;;;5.20;2.63;;;;;;;;;;4979955;28;20054;-83
2022/07/02 02:02:15;;;;;;;3.75;2.58;;;;;;;;;;4971105;28;20039;-81
2022/07/02 02:04:41;;;;;;;7.15;2.60;;;;;;;;;;4980653;23;20046;-81
2022/07/02 02:07:07;;;;;;;3.90;2.80;;;;;;;;;;4959083;28;20400;-80
2022/07/02 02:09:32;;;;;;;4.68;2.33;;;;;;;;;;4971740;28;20500;-79
2022/07/02 02:11:59;;;;;;;3.85;2.63;;;;;;;;;;4953716;28;20030;-83
2022/07/02 02:14:24;;;;;;;6.72;2.92;;;;;;;;;;4978007;28;20042;-83
2022/07/02 02:16:49;;;;;;;5.50;3.15;;;;;;;;;;4977626;28;20022;-79
2022/07/02 02:19:15;;;;;;;3.33;2.80;;;;;;;;;;4977638;28;20031;-83
2022/07/02 02:21:40;;;;;;;3.28;2.47;;;;;;;;;;4977298;28;20031;-82
2022/07/02 02:24:06;;;;;;;4.50;2.65;;;;;;;;;;4952806;28;20034;-81
2022/07/02 02:26:31;;;;;;;4.53;2.80;;;;;;;;;;4977412;28;20034;-82
2022/07/02 02:28:57;;;;;;;5.00;2.90;;;;;;;;;;4959637;28;20026;-80
2022/07/02 02:31:23;;;;;;;5.13;3.17;;;;;;;;;;4960392;28;20019;-81
2022/07/02 02:33:49;;;;;;;7.00;2.70;;;;;;;;;;4977778;28;20023;-81
2022/07/02 02:36:14;;;;;;;6.50;2.85;;;;;;;;;;4977299;28;20030;-80
2022/07/02 02:38:39;;;;;;;6.20;2.72;;;;;;;;;;4977162;28;20561;-82
2022/07/02 02:41:06;;;;;;;4.15;2.60;;;;;;;;;;4960034;28;20023;-80
2022/07/02 02:43:33;;;;;;;5.65;2.42;;;;;;;;;;4940843;28;20030;-81
2022/07/02 02:45:59;;;;;;;4.47;2.92;;;;;;;;;;4957977;29;20031;-80
2022/07/02 02:48:24;;;;;;;2.95;2.60;;;;;;;;;;4957067;29;20027;-82
2022/07/02 02:50:50;;;;;;;6.13;2.80;;;;;;;;;;4939687;29;20090;-80
2022/07/02 02:53:15;;;;;;;3.53;2.85;;;;;;;;;;4956592;29;20030;-83
2022/07/02 02:55:40;;;;;;;4.50;2.83;;;;;;;;;;4938090;29;20070;-82
2022/07/02 02:58:06;;;;;;;5.90;2.47;;;;;;;;;;4938694;29;20074;-80
2022/07/02 03:00:31;;;;;;;4.10;2.40;;;;;;;;;;4938935;29;20034;-81
2022/07/02 03:02:56;;;;;;;11.05;2.72;;;;;;;;;;4956171;28;20019;-84
2022/07/02 03:05:22;;;;;;;3.65;2.45;;;;;;;;;;4959788;28;20027;-81
2022/07/02 03:07:48;;;;;;;5.18;2.88;;;;;;;;;;4940168;29;20113;-82
2022/07/02 03:10:13;;;;;;;2.67;2.33;;;;;;;;;;4958191;29;20030;-84
2022/07/02 03:12:39;;;;;;;2.63;2.35;;;;;;;;;;4957586;29;20465;-81
2022/07/02 03:15:05;;;;;;;5.57;2.30;;;;;;;;;;4957647;29;20030;-81
2022/07/02 03:17:30;;;;;;;4.07;2.50;;;;;;;;;;4940397;29;20061;-80
2022/07/02 03:19:55;;;;;;;2.70;2.33;;;;;;;;;;4957714;29;20027;-82
2022/07/02 03:22:21;;;;;;;6.32;2.80;;;;;;;;;;4958617;29;20086;-81
2022/07/02 03:24:46;;;;;;;2.60;2.33;;;;;;;;;;4957222;29;20077;-81
2022/07/02 03:27:11;;;;;;;7.05;2.80;;;;;;;;;;4957369;29;20501;-81
2022/07/02 03:29:37;;;;;;;3.85;2.20;;;;;;;;;;4957161;29;20102;-81
2022/07/02 03:32:02;;;;;;;7.90;2.50;;;;;;;;;;4957106;29;20031;-83
2022/07/02 03:34:28;;;;;;;4.97;2.70;;;;;;;;;;4954849;28;20038;-81
2022/07/02 03:36:53;;;;;;;5.20;2.38;;;;;;;;;;4962191;28;20034;-81
2022/07/02 03:39:18;;;;;;;3.17;2.60;;;;;;;;;;4936561;29;20031;-81
2022/07/02 03:41:44;;;;;;;11.07;3.00;;;;;;;;;;4949767;29;20573;-79
2022/07/02 03:44:09;;;;;;;7.20;3.30;;;;;;;;;;4946324;28;20030;-82
2022/07/02 03:46:34;;;;;;;4.10;2.60;;;;;;;;;;4962678;28;20031;-82
2022/07/02 03:49:00;;;;;;;5.97;2.63;;;;;;;;;;4963507;28;20031;-80
2022/07/02 03:51:25;;;;;;;3.72;2.72;;;;;;;;;;4957072;29;20034;-82
2022/07/02 03:53:51;;;;;;;3.78;2.80;;;;;;;;;;4955982;29;20038;-81
2022/07/02 03:56:16;;;;;;;5.63;3.38;;;;;;;;;;4958827;28;20026;-81
2022/07/02 03:58:42;;;;;;;3.10;2.42;;;;;;;;;;4955633;29;20406;-83
2022/07/02 04:01:07;;;;;;;2.88;2.47;;;;;;;;;;4956809;29;20051;-81
2022/07/02 04:03:33;;;;;;;5.10;2.63;;;;;;;;;;4955405;29;20557;-80
2022/07/02 04:05:59;;;;;;;4.38;3.05;;;;;;;;;;4962383;28;20039;-82
2022/07/02 04:08:24;;;;;;;3.97;2.80;;;;;;;;;;4938974;29;20038;-82
2022/07/02 04:10:50;;;;;;;4.63;2.80;;;;;;;;;;4939030;29;20027;-81
2022/07/02 04:13:15;;;;;;;3.20;2.80;;;;;;;;;;4954058;28;20029;-80
2022/07/02 04:15:40;;;;;;;6.05;2.80;;;;;;;;;;4958122;28;20468;-84
2022/07/02 04:18:06;;;;;;;4.53;2.78;;;;;;;;;;4958325;28;20039;-82
2022/07/02 04:20:32;;;;;;;5.45;2.70;;;;;;;;;;4941092;29;20493;-81
2022/07/02 04:22:57;;;;;;;4.30;3.70;;;;;;;;;;4956118;29;20023;-81
2022/07/02 04:25:23;;;;;;;7.25;3.72;;;;;;;;;;4957093;29;20027;-83
2022/07/02 04:27:48;;;;;;;3.97;3.55;;;;;;;;;;4945823;29;20118;-80
2022/07/02 04:30:14;;;;;;;4.85;3.05;;;;;;;;;;4956502;29;20031;-80
2022/07/02 04:32:39;;;;;;;4.65;3.50;;;;;;;;;;4955140;29;20067;-80
2022/07/02 04:35:05;;;;;;;5.80;3.35;;;;;;;;;;4967972;28;20022;-81
2022/07/02 04:37:30;;;;;;;4.88;3.35;;;;;;;;;;4950182;29;20031;-81
2022/07/02 04:39:56;;;;;;;5.70;3.92;;;;;;;;;;4942551;28;20540;-80
2022/07/02 04:42:21;;;;;;;4.47;3.30;;;;;;;;;;4970347;28;20019;-80
2022/07/02 04:44:46;;;;;;;6.63;3.50;;;;;;;;;;4952442;29;20042;-82
2022/07/02 04:47:12;;;;;;;9.40;3.15;;;;;;;;;;4962978;28;20031;-80
2022/07/02 04:49:37;;;;;;;3.72;3.20;;;;;;;;;;4971082;28;20054;-80
2022/07/02 04:52:03;;;;;;;4.15;2.80;;;;;;;;;;4949208;29;20030;-83
2022/07/02 04:54:29;;;;;;;8.50;3.40;;;;;;;;;;4946611;29;20042;-84
2022/07/02 04:56:54;;;;;;;4.78;3.33;;;;;;;;;;4951597;29;20039;-81
2022/07/02 04:59:19;;;;;;;4.22;3.13;;;;;;;;;;4952518;29;20054;-82
2022/07/02 05:01:45;;;;;;;4.78;3.30;;;;;;;;;;4959279;29;20027;-82
2022/07/02 05:04:10;;;;;;;5.13;3.60;;;;;;;;;;4949784;29;20041;-82
2022/07/02 05:06:36;;;;;;;5.18;3.13;;;;;;;;;;4963228;28;20027;-82
2022/07/02 05:09:02;;;;;;;4.75;2.85;;;;;;;;;;4942604;29;20035;-82
2022/07/02 05:11:27;;;;;;;4.95;3.13;;;;;;;;;;4949963;28;20031;-82
2022/07/02 05:13:52;;;;;;;7.25;3.42;;;;;;;;;;4962763;28;20034;-80
2022/07/02 05:16:18;;;;;;;4.72;3.22;;;;;;;;;;4959467;29;20058;-83
2022/07/02 05:18:43;;;;;;;5.15;2.95;;;;;;;;;;4973140;28;20527;-82
2022/07/02 05:21:09;;;;;;;4.38;2.97;;;;;;;;;;4942195;29;20027;-82
2022/07/02 05:23:34;;;;;;;4.95;3.45;;;;;;;;;;4959383;28;20023;-83
2022/07/02 05:26:00;;;;;;;8.48;3.20;;;;;;;;;;4942333;29;20034;-80
2022/07/02 05:28:25;;;;;;;3.80;3.05;;;;;;;;;;4943477;29;20023;-81
2022/07/02 05:30:51;;;;;;;5.65;2.90;;;;;;;;;;4964436;28;20133;-83
2022/07/02 05:33:20;;;;;;;4.38;2.67;;;;;;;;;;4936208;29;20023;-80
2022/07/02 05:35:45;;;;;;;7.50;3.25;;;;;;;;;;4959767;28;20031;-82
2022/07/02 05:38:11;;;;;;;5.80;3.03;;;;;;;;;;4947618;29;20019;-81
2022/07/02 05:40:36;;;;;;;3.42;2.63;;;;;;;;;;4976144;28;20222;-80
2022/07/02 05:43:02;;;;;;;3.63;2.70;;;;;;;;;;4968550;28;20058;-83
2022/07/02 05:45:28;;;;;;;5.30;3.15;;;;;;;;;;4966195;28;20119;-81
2022/07/02 05:47:53;;;;;;;4.78;3.13;;;;;;;;;;4971365;28;20026;-81
2022/07/02 05:50:19;;;;;;;6.97;2.80;;;;;;;;;;4975715;28;20022;-82
2022/07/02 05:52:45;;;;;;;3.78;2.63;;;;;;;;;;4955000;29;20031;-82
2022/07/02 05:55:10;;;;;;;3.75;2.90;;;;;;;;;;4966912;29;20047;-84
2022/07/02 05:57:36;;;;;;;4.30;2.83;;;;;;;;;;4967180;29;20074;-81
2022/07/02 06:00:01;;;;;;;6.93;2.70;;;;;;;;;;4949135;29;20034;-81
2022/07/02 06:02:26;;;;;;;4.32;2.40;;;;;;;;;;4950244;28;20066;-83
2022/07/02 06:04:52;;;;;;;4.35;2.95;;;;;;;;;;4974410;28;20038;-80
2022/07/02 06:10:01;;;;;;;7.28;2.60;;;;;;;;;;4952398;29;20511;-80
2022/07/02 06:12:27;;;;;;;3.92;2.67;;;;;;;;;;4963408;28;20051;-79
2022/07/02 06:14:52;;;;;;;3.58;2.40;;;;;;;;;;4963852;28;20122;-79
2022/07/02 06:17:18;;;;;;;2.85;2.55;;;;;;;;;;4947440;28;20026;-80
2022/07/02 06:19:46;;;;;;;2.53;2.28;;;;;;;;;;4968559;28;20082;-78
2022/07/02 06:22:12;;;;;;;2.60;2.33;;;;;;;;;;4939569;29;20043;-79
2022/07/02 06:24:37;;;;;;;2.80;2.35;;;;;;;;;;4940107;29;20474;-79
2022/07/02 06:27:03;;;;;;;2.15;1.95;;;;;;;;;;4940012;29;20551;-81
2022/07/02 06:29:28;;;;;;;3.10;1.80;;;;;;;;;;4956347;28;20478;-79
2022/07/02 06:31:54;;;;;;;4.25;1.90;;;;;;;;;;4958700;28;20478;-78
2022/07/02 06:34:19;;;;;;;2.10;1.83;;;;;;;;;;4945845;28;20081;-78
2022/07/02 06:36:45;;;;;;;2.75;1.98;;;;;;;;;;4939652;29;20055;-80
2022/07/02 06:39:11;;;;;;;2.67;1.33;;;;;;;;;;4958218;28;20030;-81
2022/07/02 06:44:20;;;;;;;1.70;1.58;;;;;;;;;;4940645;29;20111;-81
2022/07/02 06:46:45;;;;;;;2.70;1.40;;;;;;;;;;4946187;28;20042;-81
2022/07/02 06:49:10;;;;;;;1.95;1.25;;;;;;;;;;4953333;29;20034;-81
2022/07/02 06:51:36;;;;;;;1.33;1.23;;;;;;;;;;4940969;29;20035;-81
2022/07/02 06:54:01;;;;;;;1.10;1.00;;;;;;;;;;4939167;29;20173;-83
2022/07/02 06:56:37;;;;;;;2.90;1.00;;;;;;;;;;4970759;28;20030;-81
2022/07/02 06:59:03;;;;;;;1.35;1.25;;;;;;;;;;4955397;29;20438;-80
2022/07/02 07:01:29;;;;;;;1.38;1.27;;;;;;;;;;4941357;28;20107;-79
2022/07/02 07:03:54;;;;;;;1.42;1.10;;;;;;;;;;4954055;28;20085;-83
2022/07/02 07:06:21;;;;;;;3.60;1.02;;;;;;;;;;4977521;28;20038;-81
2022/07/02 07:08:52;;;;;;;1.85;1.42;;;;;;;;;;4950617;28;20051;-83
2022/07/02 07:11:20;;;;;;;2.05;1.20;;;;;;;;;;4951816;28;20031;-84
2022/07/02 07:13:45;;;;;;;0.90;0.90;;;;;;;;;;4921556;29;20050;-81
2022/07/02 07:16:10;;;;;;;0.80;0.80;;;;;;;;;;4964619;28;20456;-84
2022/07/02 07:18:36;;;;;;;1.80;0.90;;;;;;;;;;4948903;28;20031;-78
2022/07/02 07:21:01;;;;;;;3.33;0.98;;;;;;;;;;4969017;28;20053;-81
2022/07/02 07:23:27;;;;;;;0.90;0.90;;;;;;;;;;4956983;29;20032;-81
2022/07/02 07:25:52;;;;;;;4.20;1.10;;;;;;;;;;4958268;29;20073;-81
2022/07/02 07:28:17;;;;;;;3.70;1.17;;;;;;;;;;4957712;29;20470;-82
2022/07/02 07:30:43;;;;;;;1.50;0.68;;;;;;;;;;4953232;29;20512;-81
2022/07/02 07:33:08;;;;;;;0.50;0.50;;;;;;;;;;4941703;29;20083;-79
2022/07/02 07:35:34;;;;;;;0.90;0.90;;;;;;;;;;4955031;28;20054;-81
2022/07/02 07:38:00;;;;;;;0.90;0.90;;;;;;;;;;4958574;29;20029;-78
2022/07/02 07:40:26;;;;;;;1.73;1.10;;;;;;;;;;4955344;28;20054;-78
2022/07/02 07:42:52;;;;;;;0.80;0.80;;;;;;;;;;4960525;29;20062;-78
2022/07/02 07:45:17;;;;;;;0.77;0.77;;;;;;;;;;4959866;29;20042;-79
2022/07/02 07:47:43;;;;;;;1.48;0.90;;;;;;;;;;4931827;29;20056;-79
2022/07/02 07:50:09;;;;;;;1.35;0.60;;;;;;;;;;4944177;29;20110;-80
2022/07/02 07:52:34;;;;;;;1.15;0.73;;;;;;;;;;4941756;29;20020;-78
2022/07/02 07:54:59;;;;;;;0.80;0.80;;;;;;;;;;4943952;29;20038;-78
2022/07/02 07:57:25;;;;;;;0.85;0.68;;;;;;;;;;4959967;29;20031;-85
2022/07/02 07:59:50;;;;;;;0.95;0.77;;;;;;;;;;4941785;29;20019;-79
2022/07/02 08:02:16;;;;;;;0.68;0.68;;;;;;;;;;4971590;28;20130;-81
2022/07/02 08:04:42;;;;;;;0.60;0.60;;;;;;;;;;4987876;23;20057;-81
2022/07/02 08:07:07;;;;;;;0.80;0.50;;;;;;;;;;4978038;28;20078;-82
2022/07/02 08:09:33;;;;;;;0.65;0.63;;;;;;;;;;4992137;28;20026;-83
2022/07/02 08:11:58;;;;;;;0.77;0.77;;;;;;;;;;4989231;28;20030;-82
2022/07/02 08:14:24;;;;;;;0.82;0.63;;;;;;;;;;4961395;28;20049;-82
2022/07/02 08:16:49;;;;;;;0.40;0.40;;;;;;;;;;4974298;28;20628;-83
2022/07/02 08:19:15;;;;;;;2.55;0.47;;;;;;;;;;4981472;28;20030;-82
2022/07/02 08:21:40;;;;;;;0.50;0.50;;;;;;;;;;4970489;28;20034;-82
2022/07/02 08:24:05;;;;;;;1.88;0.60;;;;;;;;;;4996000;28;20360;-83
2022/07/02 08:26:31;;;;;;;1.85;0.50;;;;;;;;;;4994218;28;20029;-83
2022/07/02 08:28:56;;;;;;;0.50;0.50;;;;;;;;;;4988879;28;20041;-83
2022/07/02 08:31:21;;;;;;;0.75;0.70;;;;;;;;;;4966785;28;20125;-84
2022/07/02 08:33:47;;;;;;;3.95;0.70;;;;;;;;;;4965230;28;20030;-83
2022/07/02 08:36:12;;;;;;;5.22;0.70;;;;;;;;;;4984061;28;20031;-83
2022/07/02 08:38:38;;;;;;;1.27;0.55;;;;;;;;;;4985374;28;20551;-83
2022/07/02 08:41:04;;;;;;;0.88;0.50;;;;;;;;;;4992833;28;20022;-83
2022/07/02 08:43:31;;;;;;;0.50;0.50;;;;;;;;;;4968296;28;20098;-83
2022/07/02 08:46:01;;;;;;;0.68;0.52;;;;;;;;;;4989877;28;20027;-83
2022/07/02 08:48:28;;;;;;;0.55;0.50;;;;;;;;;;4973623;28;20034;-83
2022/07/02 08:50:56;;;;;;;0.45;0.45;;;;;;;;;;4983635;28;20105;-83
2022/07/02 08:53:21;;;;;;;2.42;0.70;;;;;;;;;;4996519;28;20491;-83
2022/07/02 08:55:50;;;;;;;0.70;0.70;;;;;;;;;;4994539;28;20070;-83
2022/07/02 08:58:16;;;;;;;1.48;0.60;;;;;;;;;;4995593;28;20085;-83
2022/07/02 09:00:42;;;;;;;0.82;0.50;;;;;;;;;;4991596;28;20034;-83
2022/07/02 09:03:09;;;;;;;0.70;0.70;;;;;;;;;;4963567;28;20027;-83
2022/07/02 09:05:37;;;;;;;1.27;0.70;;;;;;;;;;4972435;28;20087;-83
2022/07/02 09:08:05;;;;;;;0.95;0.63;;;;;;;;;;4987092;28;20057;-83
2022/07/02 09:10:31;;;;;;;0.40;0.40;;;;;;;;;;4996050;28;20026;-82
2022/07/02 09:12:58;;;;;;;1.73;0.70;;;;;;;;;;4986985;28;20026;-83
2022/07/02 09:15:24;;;;;;;0.50;0.50;;;;;;;;;;4991755;28;20031;-82
2022/07/02 09:17:50;;;;;;;1.02;0.63;;;;;;;;;;4999029;28;20081;-82
2022/07/02 09:20:15;;;;;;;0.40;0.40;;;;;;;;;;4972692;28;21240;-83
2022/07/02 09:22:46;;;;;;;0.45;0.45;;;;;;;;;;4997234;28;20035;-84
2022/07/02 09:25:16;;;;;;;0.50;0.50;;;;;;;;;;4986192;28;20057;-83
2022/07/02 09:27:44;;;;;;;1.20;0.55;;;;;;;;;;4990910;28;20086;-82
2022/07/02 09:30:14;;;;;;;1.83;0.45;;;;;;;;;;4996566;28;20081;-81
2022/07/02 09:32:45;;;;;;;0.95;0.70;;;;;;;;;;4989731;28;20026;-82
2022/07/02 09:35:21;;;;;;;0.50;0.50;;;;;;;;;;4994623;28;20053;-82
2022/07/02 09:37:49;;;;;;;0.40;0.40;;;;;;;;;;4983881;28;20090;-83
2022/07/02 09:40:15;;;;;;;0.32;0.32;;;;;;;;;;4978787;28;20040;-82
2022/07/02 09:42:46;;;;;;;1.58;0.50;;;;;;;;;;4997967;28;20084;-82
2022/07/02 09:45:13;;;;;;;1.02;0.45;;;;;;;;;;4992244;28;20082;-82
2022/07/02 09:47:40;;;;;;;0.80;0.57;;;;;;;;;;4982566;28;20054;-82
2022/07/02 09:50:10;;;;;;;1.58;0.40;;;;;;;;;;4984059;28;20027;-81
2022/07/02 09:52:57;;;;;;;1.88;0.60;;;;;;;;;;4980503;28;20026;-82
2022/07/02 09:55:32;;;;;;;0.32;0.32;;;;;;;;;;4980292;28;20034;-81
2022/07/02 09:58:01;;;;;;;1.50;0.45;;;;;;;;;;4985717;28;20512;-81
2022/07/02 10:00:29;;;;;;;0.50;0.50;;;;;;;;;;4986154;28;20496;-82
2022/07/02 10:02:56;;;;;;;1.88;0.82;;;;;;;;;;4986867;28;20022;-82
2022/07/02 10:05:33;;;;;;;0.40;0.40;;;;;;;;;;4987734;28;20108;-82
2022/07/02 10:08:04;;;;;;;0.95;0.70;;;;;;;;;;4963866;28;20107;-83
2022/07/02 10:10:41;;;;;;;0.63;0.50;;;;;;;;;;4972732;28;20429;-81
2022/07/02 10:13:12;;;;;;;0.65;0.40;;;;;;;;;;4967435;28;20042;-82
2022/07/02 10:15:51;;;;;;;0.40;0.40;;;;;;;;;;4984074;28;20090;-82
2022/07/02 10:18:18;;;;;;;0.60;0.40;;;;;;;;;;4964075;28;20031;-81
2022/07/02 10:20:44;;;;;;;0.55;0.55;;;;;;;;;;4966541;28;20027;-82
2022/07/02 10:23:12;;;;;;;0.57;0.57;;;;;;;;;;4981010;28;20031;-82
2022/07/02 10:25:37;;;;;;;1.33;0.52;;;;;;;;;;4982699;28;20034;-82
2022/07/02 10:28:03;;;;;;;1.65;0.80;;;;;;;;;;4983921;28;20019;-82
2022/07/02 10:30:33;;;;;;;0.70;0.70;;;;;;;;;;4962206;28;20046;-82
2022/07/02 10:33:20;;;;;;;1.73;0.75;;;;;;;;;;4962996;28;20035;-81
2022/07/02 10:35:47;;;;;;;0.50;0.50;;;;;;;;;;4969003;28;20057;-82
2022/07/02 10:38:13;;;;;;;0.50;0.50;;;;;;;;;;4971128;28;20093;-81
2022/07/02 10:40:47;;;;;;;0.52;0.52;;;;;;;;;;4989356;28;20415;-82
2022/07/02 10:43:14;;;;;;;1.25;0.80;;;;;;;;;;4988087;28;20045;-82
2022/07/02 10:45:40;;;;;;;0.45;0.40;;;;;;;;;;4988644;28;20173;-83
2022/07/02 10:48:06;;;;;;;0.93;0.60;;;;;;;;;;4970346;28;20076;-82
2022/07/02 10:50:34;;;;;;;0.65;0.60;;;;;;;;;;4983841;28;20039;-82
2022/07/02 10:53:07;;;;;;;0.95;0.47;;;;;;;;;;4984761;28;20060;-82
2022/07/02 10:55:32;;;;;;;1.45;0.57;;;;;;;;;;4979877;28;20311;-82
2022/07/02 10:57:59;;;;;;;0.63;0.63;;;;;;;;;;4961650;28;20061;-82
2022/07/02 11:00:34;;;;;;;0.50;0.50;;;;;;;;;;4960418;28;20061;-82
2022/07/02 11:03:17;;;;;;;0.98;0.55;;;;;;;;;;4961894;28;20096;-82
2022/07/02 11:05:58;;;;;;;0.75;0.68;;;;;;;;;;4975710;28;20030;-82
2022/07/02 11:08:43;;;;;;;0.55;0.55;;;;;;;;;;4991890;28;20109;-82
2022/07/02 11:11:09;;;;;;;0.50;0.43;;;;;;;;;;4990168;28;20030;-82
2022/07/02 11:13:43;;;;;;;2.03;0.60;;;;;;;;;;4978113;28;20046;-82
2022/07/02 11:16:23;;;;;;;1.08;0.85;;;;;;;;;;4960896;28;20050;-83
2022/07/02 11:18:49;;;;;;;0.85;0.77;;;;;;;;;;4977896;28;20030;-83
2022/07/02 11:21:15;;;;;;;0.73;0.60;;;;;;;;;;4986442;28;20555;-83
2022/07/02 11:23:41;;;;;;;0.70;0.70;;;;;;;;;;4983238;28;20030;-82
2022/07/02 11:26:07;;;;;;;1.27;0.60;;;;;;;;;;4989186;28;20034;-82
2022/07/02 11:28:35;;;;;;;0.85;0.52;;;;;;;;;;4973690;28;20453;-82
2022/07/02 11:31:02;;;;;;;0.60;0.60;;;;;;;;;;4966478;28;20038;-82
2022/07/02 11:33:28;;;;;;;0.98;0.57;;;;;;;;;;4978816;28;20022;-81
2022/07/02 11:35:53;;;;;;;1.17;0.75;;;;;;;;;;4984742;28;20086;-81
2022/07/02 11:38:19;;;;;;;1.00;0.75;;;;;;;;;;4965891;28;20401;-81
2022/07/02 11:40:45;;;;;;;1.25;0.77;;;;;;;;;;4983780;28;20022;-83
2022/07/02 11:43:14;;;;;;;8.30;1.40;;;;;;;;;;5013277;28;20498;-84
2022/07/02 11:45:47;;;;;;;0.55;0.50;;;;;;;;;;5013667;28;20031;-86
2022/07/02 11:48:20;;;;;;;0.57;0.50;;;;;;;;;;4981109;28;20054;-81
2022/07/02 11:50:57;;;;;;;0.50;0.50;;;;;;;;;;4979723;28;20018;-83
2022/07/02 11:53:23;;;;;;;1.85;0.70;;;;;;;;;;4961620;28;20058;-83
2022/07/02 11:55:49;;;;;;;2.08;0.50;;;;;;;;;;4989173;28;20082;-83
2022/07/02 11:58:15;;;;;;;0.82;0.70;;;;;;;;;;4969288;28;20113;-81
2022/07/02 12:00:40;;;;;;;0.52;0.50;;;;;;;;;;4984561;28;20104;-82
2022/07/02 12:03:12;;;;;;;2.95;0.60;;;;;;;;;;4982804;28;20109;-83
2022/07/02 12:05:51;;;;;;;0.57;0.52;;;;;;;;;;4964104;28;20015;-83
2022/07/02 12:08:17;;;;;;;0.50;0.50;;;;;;;;;;4995358;28;20061;-83
2022/07/02 12:10:42;;;;;;;0.40;0.40;;;;;;;;;;4983120;28;20030;-81
2022/07/02 12:13:11;;;;;;;1.45;0.60;;;;;;;;;;4960373;28;20081;-82
2022/07/02 12:15:44;;;;;;;0.77;0.45;;;;;;;;;;4977238;28;20165;-82
2022/07/02 12:18:20;;;;;;;0.60;0.60;;;;;;;;;;4965175;28;20511;-85
2022/07/02 12:20:47;;;;;;;1.02;0.50;;;;;;;;;;4963944;28;20054;-82
2022/07/02 12:23:13;;;;;;;0.75;0.57;;;;;;;;;;4997005;28;20050;-83
2022/07/02 12:25:43;;;;;;;0.50;0.50;;;;;;;;;;4997303;28;20361;-81
2022/07/02 12:29:52;;;;;;;0.70;0.70;;;;;;;;;;4980148;28;20065;-83
2022/07/02 12:30:53;;;;;;;0.95;0.60;;;;;;;;;;4994719;28;20034;-82
2022/07/02 12:33:54;;;;;;;0.98;0.47;;;;;;;;;;4967705;28;20029;-83
2022/07/02 12:36:19;;;;;;;4.22;0.70;;;;;;;;;;4955708;28;20054;-82
2022/07/02 12:38:45;;;;;;;2.80;0.75;;;;;;;;;;4976736;28;20054;-84
2022/07/02 12:41:11;;;;;;;1.55;0.52;;;;;;;;;;4983992;28;20037;-85
2022/07/02 12:43:36;;;;;;;0.68;0.57;;;;;;;;;;4987135;28;20030;-84
2022/07/02 12:46:07;;;;;;;0.68;0.60;;;;;;;;;;4991434;28;20050;-84
2022/07/02 12:48:43;;;;;;;0.98;0.60;;;;;;;;;;4985064;28;20026;-84
2022/07/02 12:51:10;;;;;;;0.75;0.75;;;;;;;;;;4986405;28;20027;-83
2022/07/02 12:53:35;;;;;;;0.60;0.60;;;;;;;;;;4960068;28;20041;-83
2022/07/02 12:56:03;;;;;;;0.47;0.47;;;;;;;;;;4987166;28;20106;-85
2022/07/02 12:58:29;;;;;;;3.30;0.75;;;;;;;;;;4978490;28;20078;-84
2022/07/02 13:00:55;;;;;;;0.60;0.60;;;;;;;;;;4953444;28;20054;-85
2022/07/02 13:03:23;;;;;;;0.98;0.60;;;;;;;;;;4981484;28;20038;-86
2022/07/02 13:05:53;;;;;;;1.20;0.57;;;;;;;;;;4960901;28;20086;-86
2022/07/02 13:08:22;;;;;;;0.40;0.40;;;;;;;;;;4995271;23;20031;-87
2022/07/02 13:10:52;;;;;;;1.27;0.70;;;;;;;;;;5004110;28;20390;-86
2022/07/02 13:13:18;;;;;;;2.05;0.80;;;;;;;;;;5013645;28;20014;-86
2022/07/02 13:15:44;;;;;;;3.00;1.02;;;;;;;;;;4982289;28;20039;-85
2022/07/02 13:18:10;;;;;;;3.92;0.55;;;;;;;;;;4978858;28;20029;-85
2022/07/02 13:20:35;;;;;;;3.28;0.52;;;;;;;;;;4964695;28;20030;-85
2022/07/02 13:23:01;;;;;;;1.25;0.70;;;;;;;;;;4955144;28;20023;-84
2022/07/02 13:25:26;;;;;;;0.57;0.57;;;;;;;;;;4969341;28;20512;-85
2022/07/02 13:27:52;;;;;;;2.20;1.13;;;;;;;;;;4978737;28;20494;-85
2022/07/02 13:30:18;;;;;;;0.50;0.50;;;;;;;;;;4979806;28;20025;-85
2022/07/02 13:32:46;;;;;;;0.57;0.38;;;;;;;;;;4959628;28;20110;-84
2022/07/02 13:35:12;;;;;;;0.50;0.40;;;;;;;;;;4963977;28;20108;-84
2022/07/02 13:37:38;;;;;;;3.55;0.60;;;;;;;;;;4957387;28;20515;-85
2022/07/02 13:40:05;;;;;;;0.50;0.50;;;;;;;;;;4967783;28;20026;-85
2022/07/02 13:42:31;;;;;;;2.17;0.93;;;;;;;;;;4957125;28;20074;-85
2022/07/02 13:44:57;;;;;;;0.70;0.70;;;;;;;;;;4977035;28;20036;-84
2022/07/02 13:47:22;;;;;;;1.65;0.70;;;;;;;;;;4982695;28;20034;-84
2022/07/02 13:49:47;;;;;;;0.88;0.60;;;;;;;;;;4955420;28;20480;-85
2022/07/02 13:52:13;;;;;;;0.63;0.57;;;;;;;;;;4977082;28;20023;-84
2022/07/02 13:54:39;;;;;;;0.88;0.80;;;;;;;;;;4976770;28;20443;-84
2022/07/02 13:57:04;;;;;;;0.88;0.68;;;;;;;;;;4959486;28;20517;-85
2022/07/02 13:59:30;;;;;;;2.25;0.60;;;;;;;;;;4958726;28;20539;-85
2022/07/02 14:01:55;;;;;;;0.60;0.60;;;;;;;;;;4977024;28;20038;-84
2022/07/02 14:04:21;;;;;;;1.38;0.70;;;;;;;;;;4952309;28;20030;-85
2022/07/02 14:06:46;;;;;;;0.82;0.60;;;;;;;;;;4960257;28;20023;-85
2022/07/02 14:09:12;;;;;;;0.50;0.50;;;;;;;;;;4959619;28;20026;-85
2022/07/02 14:11:39;;;;;;;0.65;0.65;;;;;;;;;;4966201;28;20086;-85
2022/07/02 14:14:24;;;;;;;1.15;0.80;;;;;;;;;;4970831;28;20657;-85
2022/07/02 14:20:23;;;;;;;0.40;0.40;;;;;;;;;;4971786;28;20049;-86
2022/07/02 14:22:48;;;;;;;1.00;0.80;;;;;;;;;;4958959;28;20023;-85
2022/07/02 14:26:10;;;;;;;1.15;0.70;;;;;;;;;;4974149;28;20023;-86
2022/07/02 14:28:35;;;;;;;1.95;0.90;;;;;;;;;;4975999;28;20054;-85
2022/07/02 14:31:01;;;;;;;2.63;0.80;;;;;;;;;;4958806;28;20042;-86
2022/07/02 14:33:55;;;;;;;1.75;0.70;;;;;;;;;;4958373;28;20464;-86
2022/07/02 14:36:23;;;;;;;0.80;0.80;;;;;;;;;;4957148;28;20030;-86
2022/07/02 14:38:49;;;;;;;1.20;1.10;;;;;;;;;;4958174;28;20045;-86
2022/07/02 14:41:32;;;;;;;1.02;0.77;;;;;;;;;;4960719;28;20481;-86
2022/07/02 14:43:58;;;;;;;1.20;0.80;;;;;;;;;;4961175;28;20027;-86
2022/07/02 14:46:29;;;;;;;0.95;0.80;;;;;;;;;;4957974;28;20037;-85
2022/07/02 14:48:55;;;;;;;;;;;;;;;;;;4970004;28;20399;-87
2022/07/02 14:51:21;;;;;;;4.00;1.08;;;;;;;;;;4963505;28;19921;-86
2022/07/02 14:53:47;;;;;;;0.65;0.65;;;;;;;;;;4980305;28;20027;-86
2022/07/02 14:56:13;;;;;;;0.75;0.55;;;;;;;;;;4990417;28;20030;-87